createdAt,value
2022-12-17T00:00:46.597Z,17.21
2022-12-17T00:03:32.277Z,17.19
2022-12-17T00:06:18.075Z,17.28
2022-12-17T00:09:03.234Z,17.13
2022-12-17T00:11:48.568Z,16.98
2022-12-17T00:14:33.837Z,17.17
2022-12-17T00:17:20.592Z,17.13
2022-12-17T00:20:05.848Z,17.23
2022-12-17T00:22:51.174Z,17.03
2022-12-17T00:25:36.604Z,17.14
2022-12-17T00:28:21.694Z,17.11
2022-12-17T00:31:10.441Z,17.10
2022-12-17T00:33:57.640Z,17.11
2022-12-17T00:36:43.275Z,17.08
2022-12-17T00:39:28.398Z,16.95
2022-12-17T00:42:15.443Z,16.95
2022-12-17T00:45:01.719Z,17.19
2022-12-17T00:47:47.576Z,17.09
2022-12-17T00:50:34.815Z,16.94
2022-12-17T00:53:20.073Z,16.66
2022-12-17T00:56:05.842Z,16.76
2022-12-17T00:58:51.072Z,17.02
2022-12-17T01:01:37.656Z,16.90
2022-12-17T01:04:23.390Z,17.03
2022-12-17T01:07:10.281Z,16.85
2022-12-17T01:09:55.467Z,16.78
2022-12-17T01:12:41.154Z,16.75
2022-12-17T01:15:26.788Z,16.78
2022-12-17T01:18:12.263Z,16.97
2022-12-17T01:20:57.407Z,16.96
2022-12-17T01:23:52.800Z,16.74
2022-12-17T01:26:38.391Z,16.89
2022-12-17T01:29:23.665Z,16.81
2022-12-17T01:32:08.855Z,16.88
2022-12-17T01:34:55.689Z,16.73
2022-12-17T01:37:41.179Z,16.84
2022-12-17T01:40:29.419Z,16.55
2022-12-17T01:43:18.012Z,16.68
2022-12-17T01:46:07.652Z,16.78
2022-12-17T01:49:05.543Z,16.69
2022-12-17T01:51:52.651Z,16.42
2022-12-17T01:54:38.551Z,16.57
2022-12-17T01:57:26.332Z,16.45
2022-12-17T02:00:17.503Z,16.43
2022-12-17T02:03:02.997Z,16.61
2022-12-17T02:05:56.923Z,16.33
2022-12-17T02:08:50.262Z,16.58
2022-12-17T02:11:42.937Z,16.42
2022-12-17T02:14:40.639Z,16.31
2022-12-17T02:17:33.732Z,16.42
2022-12-17T02:20:35.027Z,16.17
2022-12-17T02:23:27.705Z,16.25
2022-12-17T02:26:26.871Z,16.39
2022-12-17T02:29:16.340Z,16.35
2022-12-17T02:32:16.089Z,16.28
2022-12-17T02:35:02.856Z,16.45
2022-12-17T02:37:48.972Z,16.52
2022-12-17T02:40:37.176Z,16.28
2022-12-17T02:43:23.394Z,16.36
2022-12-17T02:46:11.679Z,16.47
2022-12-17T02:48:57.428Z,16.46
2022-12-17T02:51:45.572Z,16.33
2022-12-17T02:54:30.856Z,16.48
2022-12-17T02:57:16.551Z,16.44
2022-12-17T03:00:03.195Z,16.56
2022-12-17T03:02:51.371Z,16.37
2022-12-17T03:05:44.865Z,16.53
2022-12-17T03:08:31.447Z,16.39
2022-12-17T03:11:17.230Z,16.64
2022-12-17T03:14:02.937Z,16.10
2022-12-17T03:16:48.851Z,16.47
2022-12-17T03:19:36.184Z,16.57
2022-12-17T03:22:21.538Z,16.42
2022-12-17T03:25:06.772Z,16.52
2022-12-17T03:27:52.093Z,16.34
2022-12-17T03:30:38.993Z,16.31
2022-12-17T03:33:32.331Z,16.70
2022-12-17T03:36:19.272Z,16.70
2022-12-17T03:39:04.569Z,16.43
2022-12-17T03:41:49.755Z,16.42
2022-12-17T03:44:35.002Z,16.58
2022-12-17T03:47:20.188Z,16.75
2022-12-17T03:50:05.526Z,16.69
2022-12-17T03:52:52.639Z,16.50
2022-12-17T03:55:37.926Z,16.79
2022-12-17T03:58:23.177Z,16.90
2022-12-17T04:01:08.358Z,16.83
2022-12-17T04:03:53.707Z,16.70
2022-12-17T04:06:38.958Z,16.91
2022-12-17T04:09:25.933Z,16.67
2022-12-17T04:12:11.159Z,16.99
2022-12-17T04:14:56.883Z,16.81
2022-12-17T04:17:42.180Z,16.84
2022-12-17T04:20:28.585Z,16.78
2022-12-17T04:23:13.717Z,17.07
2022-12-17T04:26:00.551Z,16.74
2022-12-17T04:28:45.783Z,16.91
2022-12-17T04:31:31.553Z,16.78
2022-12-17T04:34:16.883Z,17.02
2022-12-17T04:37:02.262Z,16.84
2022-12-17T04:39:47.554Z,16.88
2022-12-17T04:42:34.845Z,16.82
2022-12-17T04:45:20.299Z,17.05
2022-12-17T04:48:10.996Z,16.79
2022-12-17T04:50:56.701Z,16.83
2022-12-17T04:53:41.988Z,16.81
2022-12-17T04:56:27.279Z,17.09
2022-12-17T04:59:13.419Z,17.02
2022-12-17T05:01:58.939Z,17.11
2022-12-17T05:04:44.376Z,16.89
2022-12-17T05:07:29.526Z,16.98
2022-12-17T05:10:20.176Z,16.94
2022-12-17T05:13:05.712Z,17.15
2022-12-17T05:15:53.405Z,16.94
2022-12-17T05:18:38.910Z,17.20
2022-12-17T05:21:24.470Z,17.26
2022-12-17T05:24:10.399Z,17.25
2022-12-17T05:26:55.686Z,17.29
2022-12-17T05:29:42.976Z,17.10
2022-12-17T05:32:29.515Z,17.31
2022-12-17T05:35:14.753Z,17.20
2022-12-17T05:38:00.023Z,17.30
2022-12-17T05:40:45.307Z,17.50
2022-12-17T05:43:31.709Z,17.66
2022-12-17T05:46:16.934Z,17.55
2022-12-17T05:49:03.820Z,17.74
2022-12-17T05:51:49.530Z,17.43
2022-12-17T05:54:34.866Z,17.79
2022-12-17T05:57:20.091Z,17.42
2022-12-17T06:00:05.401Z,17.61
2022-12-17T06:02:57.383Z,17.71
2022-12-17T06:05:44.365Z,17.66
2022-12-17T06:08:29.523Z,17.84
2022-12-17T06:11:17.714Z,17.91
2022-12-17T06:14:03.577Z,17.91
2022-12-17T06:17:03.380Z,17.82
2022-12-17T06:19:48.883Z,17.95
2022-12-17T06:22:35.494Z,18.08
2022-12-17T06:25:20.989Z,17.92
2022-12-17T06:28:06.244Z,17.76
2022-12-17T06:30:51.979Z,18.07
2022-12-17T06:33:37.852Z,17.81
2022-12-17T06:36:24.324Z,17.78
2022-12-17T06:39:11.367Z,17.78
2022-12-17T06:42:04.659Z,17.86
2022-12-17T06:44:50.403Z,17.80
2022-12-17T06:47:36.643Z,17.91
2022-12-17T06:50:22.986Z,17.98
2022-12-17T06:53:17.378Z,17.92
2022-12-17T06:56:06.407Z,18.03
2022-12-17T06:58:51.834Z,17.99
2022-12-17T07:01:37.765Z,18.22
2022-12-17T07:04:23.188Z,18.05
2022-12-17T07:07:09.030Z,18.26
2022-12-17T07:09:54.607Z,18.10
2022-12-17T07:12:44.182Z,18.20
2022-12-17T07:15:30.079Z,18.33
2022-12-17T07:18:16.284Z,18.25
2022-12-17T07:21:01.672Z,18.12
2022-12-17T07:23:46.965Z,18.29
2022-12-17T07:26:33.131Z,18.25
2022-12-17T07:29:20.632Z,18.13
2022-12-17T07:32:08.316Z,18.28
2022-12-17T07:34:53.793Z,18.36
2022-12-17T07:37:40.159Z,18.13
2022-12-17T07:40:32.317Z,18.40
2022-12-17T07:43:17.877Z,18.47
2022-12-17T07:46:05.001Z,18.19
2022-12-17T07:48:50.679Z,18.40
2022-12-17T07:51:35.963Z,18.11
2022-12-17T07:54:21.111Z,18.02
2022-12-17T07:57:06.419Z,18.23
2022-12-17T07:59:51.581Z,18.25
2022-12-17T08:02:38.831Z,17.90
2022-12-17T08:05:24.999Z,18.31
2022-12-17T08:08:10.161Z,18.30
2022-12-17T08:10:55.507Z,18.15
2022-12-17T08:13:40.724Z,18.03
2022-12-17T08:16:26.664Z,18.20
2022-12-17T08:19:14.534Z,18.41
2022-12-17T08:21:59.799Z,18.33
2022-12-17T08:24:45.169Z,18.34
2022-12-17T08:27:30.360Z,18.26
2022-12-17T08:30:15.733Z,18.17
2022-12-17T08:33:00.980Z,18.23
2022-12-17T08:35:47.751Z,18.46
2022-12-17T08:38:48.023Z,18.60
2022-12-17T08:41:33.322Z,18.46
2022-12-17T08:44:18.567Z,18.46
2022-12-17T08:47:04.004Z,18.53
2022-12-17T08:49:49.300Z,18.54
2022-12-17T08:52:35.923Z,18.50
2022-12-17T08:55:21.121Z,18.59
2022-12-17T08:58:12.002Z,19.39
2022-12-17T09:00:57.795Z,19.70
2022-12-17T09:03:43.556Z,19.96
2022-12-17T09:06:30.089Z,19.82
2022-12-17T09:09:18.039Z,19.79
2022-12-17T09:12:03.335Z,19.59
2022-12-17T09:14:56.866Z,19.43
2022-12-17T09:17:42.817Z,19.38
2022-12-17T09:20:29.586Z,19.49
2022-12-17T09:23:15.174Z,19.59
2022-12-17T09:26:01.912Z,19.48
2022-12-17T09:28:47.024Z,19.50
2022-12-17T09:31:37.003Z,19.18
2022-12-17T09:34:23.129Z,19.33
2022-12-17T09:37:08.695Z,19.19
2022-12-17T09:39:53.920Z,19.36
2022-12-17T09:42:52.582Z,19.33
2022-12-17T09:45:46.360Z,19.17
2022-12-17T09:48:38.826Z,19.13
2022-12-17T09:51:38.537Z,19.28
2022-12-17T09:54:30.372Z,19.37
2022-12-17T09:57:16.811Z,19.27
2022-12-17T10:00:03.977Z,19.36
2022-12-17T10:02:57.884Z,19.11
2022-12-17T10:05:47.044Z,19.30
2022-12-17T10:08:35.397Z,19.13
2022-12-17T10:11:34.846Z,19.30
2022-12-17T10:14:22.199Z,19.24
2022-12-17T10:17:12.092Z,19.17
2022-12-17T10:19:59.671Z,19.01
2022-12-17T10:22:45.519Z,19.15
2022-12-17T10:25:34.506Z,19.33
2022-12-17T10:28:21.639Z,19.20
2022-12-17T10:31:06.893Z,19.03
2022-12-17T10:33:58.431Z,18.92
2022-12-17T10:36:45.165Z,18.92
2022-12-17T10:39:35.567Z,18.89
2022-12-17T10:42:21.186Z,18.85
2022-12-17T10:45:20.898Z,19.02
2022-12-17T10:48:06.274Z,18.87
2022-12-17T10:50:59.942Z,19.00
2022-12-17T10:53:45.351Z,18.83
2022-12-17T10:56:40.625Z,19.17
2022-12-17T10:59:31.305Z,18.94
2022-12-17T11:02:17.807Z,19.20
2022-12-17T11:05:10.608Z,18.90
2022-12-17T11:08:00.470Z,18.95
2022-12-17T11:10:49.750Z,19.10
2022-12-17T11:13:43.712Z,19.06
2022-12-17T11:16:38.600Z,18.97
2022-12-17T11:19:46.651Z,19.16
2022-12-17T11:22:42.480Z,19.17
2022-12-17T11:25:45.449Z,18.97
2022-12-17T11:28:43.079Z,19.02
2022-12-17T11:31:53.721Z,18.93
2022-12-17T11:34:50.994Z,19.09
2022-12-17T11:37:39.831Z,19.23
2022-12-17T11:40:40.232Z,19.13
2022-12-17T11:43:36.660Z,18.96
2022-12-17T11:46:33.018Z,19.08
2022-12-17T11:49:27.475Z,19.01
2022-12-17T11:52:20.422Z,18.79
2022-12-17T11:55:14.284Z,18.68
2022-12-17T11:58:08.512Z,18.80
2022-12-17T12:01:02.564Z,18.74
2022-12-17T12:04:01.040Z,18.53
2022-12-17T12:06:56.878Z,18.88
2022-12-17T12:09:51.623Z,18.55
2022-12-17T12:12:52.423Z,18.52
2022-12-17T12:15:46.367Z,18.77
2022-12-17T12:18:39.224Z,18.80
2022-12-17T12:21:44.029Z,18.95
2022-12-17T12:24:43.918Z,18.84
2022-12-17T12:27:42.594Z,18.93
2022-12-17T12:30:34.265Z,18.90
2022-12-17T12:33:29.735Z,18.92
2022-12-17T12:36:19.635Z,18.93
2022-12-17T12:39:09.063Z,19.14
2022-12-17T12:42:04.147Z,19.14
2022-12-17T12:45:00.103Z,19.12
2022-12-17T12:47:53.891Z,19.23
2022-12-17T12:50:47.712Z,19.23
2022-12-17T12:53:33.396Z,19.07
2022-12-17T12:56:19.227Z,19.18
2022-12-17T12:59:04.264Z,19.40
2022-12-17T13:01:55.321Z,19.28
2022-12-17T13:04:51.674Z,19.13
2022-12-17T13:07:27.369Z,19.18
2022-12-17T13:09:57.027Z,18.84
2022-12-17T13:12:31.124Z,19.22
2022-12-17T13:15:28.935Z,18.73
2022-12-17T13:18:16.282Z,18.69
2022-12-17T13:20:44.381Z,18.81
2022-12-17T13:23:27.894Z,18.95
2022-12-17T13:26:15.788Z,18.81
2022-12-17T13:28:45.691Z,18.76
2022-12-17T13:31:21.077Z,18.93
2022-12-17T13:33:59.385Z,18.59
2022-12-17T13:36:35.379Z,18.91
2022-12-17T13:39:22.724Z,18.94
2022-12-17T13:41:56.899Z,18.77
2022-12-17T13:44:29.564Z,19.05
2022-12-17T13:46:57.641Z,18.85
2022-12-17T13:49:27.740Z,18.96
2022-12-17T13:52:17.915Z,19.09
2022-12-17T13:54:47.784Z,18.76
2022-12-17T13:57:20.717Z,19.02
2022-12-17T13:59:53.601Z,19.02
2022-12-17T14:02:29.954Z,18.93
2022-12-17T14:05:04.047Z,18.86
2022-12-17T14:07:39.338Z,18.79
2022-12-17T14:10:16.606Z,19.01
2022-12-17T14:12:44.944Z,18.64
2022-12-17T14:15:24.476Z,18.79
2022-12-17T14:17:54.027Z,18.95
2022-12-17T14:20:25.003Z,19.09
2022-12-17T14:22:56.002Z,18.62
2022-12-17T14:25:28.334Z,18.90
2022-12-17T14:27:58.711Z,18.87
2022-12-17T14:30:35.168Z,18.66
2022-12-17T14:33:03.751Z,18.79
2022-12-17T14:35:35.109Z,18.49
2022-12-17T14:38:04.073Z,18.72
2022-12-17T14:40:33.525Z,18.78
2022-12-17T14:43:02.592Z,18.26
2022-12-17T14:45:30.712Z,18.23
2022-12-17T14:48:00.387Z,18.31
2022-12-17T14:50:33.579Z,18.45
2022-12-17T14:53:03.372Z,18.38
2022-12-17T14:55:38.369Z,18.31
2022-12-17T14:58:17.613Z,18.45
2022-12-17T15:00:48.305Z,18.56
2022-12-17T15:03:21.249Z,18.41
2022-12-17T15:05:54.078Z,18.54
2022-12-17T15:08:22.875Z,18.78
2022-12-17T15:10:52.192Z,18.38
2022-12-17T15:13:21.041Z,18.45
2022-12-17T15:15:48.915Z,18.77
2022-12-17T15:18:16.963Z,18.47
2022-12-17T15:20:45.296Z,18.70
2022-12-17T15:23:17.175Z,18.70
2022-12-17T15:25:47.241Z,18.45
2022-12-17T15:28:17.976Z,18.63
2022-12-17T15:30:46.441Z,18.77
2022-12-17T15:33:14.661Z,18.45
2022-12-17T15:35:43.745Z,18.69
2022-12-17T15:38:13.330Z,18.67
2022-12-17T15:40:41.804Z,18.41
2022-12-17T15:43:13.584Z,18.59
2022-12-17T15:45:44.538Z,18.56
2022-12-17T15:48:14.994Z,18.33
2022-12-17T15:50:43.298Z,18.52
2022-12-17T15:53:11.484Z,18.43
2022-12-17T15:55:40.197Z,18.42
2022-12-17T15:58:10.604Z,18.52
2022-12-17T16:00:38.829Z,18.52
2022-12-17T16:03:08.392Z,18.31
2022-12-17T16:05:36.475Z,18.51
2022-12-17T16:08:04.371Z,18.46
2022-12-17T16:10:32.475Z,18.42
2022-12-17T16:13:00.443Z,18.29
2022-12-17T16:15:28.592Z,18.35
2022-12-17T16:17:56.784Z,18.62
2022-12-17T16:20:27.167Z,18.61
2022-12-17T16:22:55.213Z,18.70
2022-12-17T16:25:23.246Z,18.74
2022-12-17T16:27:51.179Z,18.46
2022-12-17T16:30:19.279Z,18.82
2022-12-17T16:32:47.278Z,18.57
2022-12-17T16:35:15.265Z,18.73
2022-12-17T16:37:44.792Z,18.54
2022-12-17T16:40:13.429Z,18.91
2022-12-17T16:42:41.584Z,18.76
2022-12-17T16:45:10.639Z,18.75
2022-12-17T16:47:38.771Z,18.77
2022-12-17T16:50:07.379Z,18.76
2022-12-17T16:52:35.367Z,19.02
2022-12-17T16:55:04.948Z,18.88
2022-12-17T16:57:32.860Z,18.85
2022-12-17T17:00:00.872Z,18.86
2022-12-17T17:02:29.142Z,18.52
2022-12-17T17:04:57.277Z,18.63
2022-12-17T17:07:25.274Z,18.57
2022-12-17T17:09:53.261Z,18.49
2022-12-17T17:12:23.350Z,18.75
2022-12-17T17:14:51.322Z,18.56
2022-12-17T17:17:19.291Z,18.54
2022-12-17T17:20:08.103Z,18.46
2022-12-17T17:22:36.155Z,18.68
2022-12-17T17:25:05.066Z,18.52
2022-12-17T17:27:34.430Z,18.54
2022-12-17T17:30:03.825Z,18.58
2022-12-17T17:32:32.144Z,18.52
2022-12-17T17:35:00.292Z,18.82
2022-12-17T17:37:28.446Z,18.60
2022-12-17T17:39:56.371Z,18.81
2022-12-17T17:42:24.348Z,18.87
2022-12-17T17:44:53.827Z,18.63
2022-12-17T17:47:21.864Z,18.89
2022-12-17T17:49:49.868Z,18.76
2022-12-17T17:52:18.309Z,18.80
2022-12-17T17:54:46.355Z,18.89
2022-12-17T17:57:14.316Z,18.92
2022-12-17T17:59:42.275Z,18.60
2022-12-17T18:02:12.802Z,18.94
2022-12-17T18:04:41.069Z,18.99
2022-12-17T18:07:26.995Z,18.91
2022-12-17T18:09:55.881Z,19.11
2022-12-17T18:12:41.999Z,19.11
2022-12-17T18:15:15.755Z,19.14
2022-12-17T18:17:46.764Z,18.78
2022-12-17T18:20:15.352Z,18.93
2022-12-17T18:22:45.791Z,19.00
2022-12-17T18:25:14.023Z,19.23
2022-12-17T18:27:42.629Z,19.17
2022-12-17T18:30:11.639Z,19.07
2022-12-17T18:32:39.635Z,18.75
2022-12-17T18:35:10.080Z,19.25
2022-12-17T18:37:38.458Z,19.18
2022-12-17T18:40:07.434Z,18.78
2022-12-17T18:42:55.394Z,19.02
2022-12-17T18:45:23.453Z,18.82
2022-12-17T18:47:51.647Z,18.82
2022-12-17T18:50:21.079Z,18.91
2022-12-17T18:52:49.150Z,18.86
2022-12-17T18:55:17.471Z,19.14
2022-12-17T18:57:45.318Z,19.02
2022-12-17T19:00:14.780Z,18.92
2022-12-17T19:02:42.852Z,19.00
2022-12-17T19:05:11.124Z,19.25
2022-12-17T19:07:40.380Z,18.99
2022-12-17T19:10:09.201Z,19.04
2022-12-17T19:12:37.228Z,19.02
2022-12-17T19:15:05.867Z,19.13
2022-12-17T19:17:34.571Z,19.24
2022-12-17T19:20:02.488Z,19.50
2022-12-17T19:22:30.535Z,19.11
2022-12-17T19:24:59.785Z,19.17
2022-12-17T19:27:28.855Z,19.48
2022-12-17T19:29:57.232Z,19.28
2022-12-17T19:32:25.908Z,19.62
2022-12-17T19:34:53.935Z,19.35
2022-12-17T19:37:21.918Z,19.36
2022-12-17T19:39:49.955Z,19.56
2022-12-17T19:42:33.465Z,19.54
2022-12-17T19:45:05.225Z,19.34
2022-12-17T19:47:33.192Z,19.41
2022-12-17T19:50:02.223Z,19.40
2022-12-17T19:52:30.299Z,19.63
2022-12-17T19:54:58.303Z,19.39
2022-12-17T19:57:27.673Z,19.68
2022-12-17T19:59:55.650Z,19.60
2022-12-17T20:02:27.016Z,19.67
2022-12-17T20:04:57.800Z,19.54
2022-12-17T20:07:27.798Z,19.49
2022-12-17T20:09:55.784Z,19.86
2022-12-17T20:12:23.844Z,19.74
2022-12-17T20:14:53.175Z,19.57
2022-12-17T20:17:21.325Z,19.96
2022-12-17T20:19:53.323Z,19.86
2022-12-17T20:22:22.856Z,19.63
2022-12-17T20:24:50.824Z,19.59
2022-12-17T20:27:18.907Z,19.62
2022-12-17T20:29:46.823Z,19.68
2022-12-17T20:32:21.261Z,19.94
2022-12-17T20:34:49.407Z,19.86
2022-12-17T20:37:17.391Z,19.95
2022-12-17T20:39:45.400Z,20.31
2022-12-17T20:42:13.491Z,20.36
2022-12-17T20:44:41.496Z,20.19
2022-12-17T20:47:09.415Z,20.23
2022-12-17T20:49:38.775Z,20.39
2022-12-17T20:52:06.862Z,20.30
2022-12-17T20:54:35.502Z,20.54
2022-12-17T20:57:03.491Z,20.27
2022-12-17T20:59:31.461Z,20.39
2022-12-17T21:01:59.445Z,20.54
2022-12-17T21:04:27.654Z,20.61
2022-12-17T21:06:57.055Z,20.60
2022-12-17T21:09:25.557Z,20.65
2022-12-17T21:11:53.559Z,20.58
2022-12-17T21:14:21.423Z,20.87
2022-12-17T21:16:49.715Z,20.73
2022-12-17T21:19:20.194Z,20.76
2022-12-17T21:21:48.628Z,20.89
2022-12-17T21:24:18.143Z,20.57
2022-12-17T21:26:49.972Z,20.91
2022-12-17T21:29:18.457Z,20.91
2022-12-17T21:31:48.561Z,20.91
2022-12-17T21:34:19.128Z,20.79
2022-12-17T21:36:47.193Z,20.77
2022-12-17T21:39:18.052Z,20.83
2022-12-17T21:42:09.090Z,21.06
2022-12-17T21:44:38.062Z,20.77
2022-12-17T21:47:06.732Z,20.93
2022-12-17T21:49:34.887Z,20.76
2022-12-17T21:52:03.157Z,20.80
2022-12-17T21:54:32.529Z,20.75
2022-12-17T21:57:00.484Z,21.03
2022-12-17T21:59:28.470Z,20.91
2022-12-17T22:01:57.506Z,21.28
2022-12-17T22:04:26.094Z,21.25
2022-12-17T22:06:58.153Z,21.13
2022-12-17T22:10:01.156Z,21.26
2022-12-17T22:12:43.566Z,21.10
2022-12-17T22:15:12.112Z,20.78
2022-12-17T22:17:42.392Z,20.88
2022-12-17T22:20:11.416Z,20.81
2022-12-17T22:22:39.464Z,21.12
2022-12-17T22:25:11.281Z,20.96
2022-12-17T22:27:40.790Z,20.89
2022-12-17T22:30:31.082Z,20.84
2022-12-17T22:33:05.613Z,20.91
2022-12-17T22:38:03.304Z,20.85
2022-12-17T22:42:56.352Z,20.95
2022-12-17T22:44:35.841Z,20.89
2022-12-17T22:44:36.168Z,20.95
2022-12-17T22:47:10.105Z,20.88
2022-12-17T22:49:40.790Z,21.02
2022-12-17T22:52:11.647Z,21.25
2022-12-17T22:54:39.785Z,21.19
2022-12-17T22:57:34.470Z,21.17
2022-12-17T22:59:57.566Z,20.87
2022-12-17T23:02:25.533Z,21.11
2022-12-17T23:04:53.459Z,20.98
2022-12-17T23:07:23.642Z,20.86
2022-12-17T23:09:54.917Z,20.92
2022-12-17T23:12:42.319Z,21.03
2022-12-17T23:15:10.751Z,21.04
2022-12-17T23:17:38.708Z,21.21
2022-12-17T23:20:07.755Z,21.10
2022-12-17T23:22:35.720Z,21.07
2022-12-17T23:25:04.332Z,20.95
2022-12-17T23:27:33.988Z,20.96
2022-12-17T23:30:02.019Z,20.72
2022-12-17T23:32:30.274Z,20.94
2022-12-17T23:34:58.460Z,20.76
2022-12-17T23:37:26.483Z,20.78
2022-12-17T23:39:54.412Z,20.73
2022-12-17T23:42:22.539Z,21.05
2022-12-17T23:44:51.888Z,20.93
2022-12-17T23:47:19.787Z,20.90
2022-12-17T23:49:47.945Z,20.94
2022-12-17T23:52:16.007Z,21.04
2022-12-17T23:54:44.016Z,21.22
2022-12-17T23:57:12.039Z,21.10
2022-12-17T23:59:40.170Z,21.05
